sensor_id;sensor_type;location;lat;lon;timestamp;P1;durP1;ratioP1;P2;durP2;ratioP2
7501;SDS011;3792;47.740;7.606;2023-03-25T00:01:06;5.03;;;1.83;;
7501;SDS011;3792;47.740;7.606;2023-03-25T00:03:38;2.03;;;1.10;;
7501;SDS011;3792;47.740;7.606;2023-03-25T00:06:07;1.77;;;1.00;;
7501;SDS011;3792;47.740;7.606;2023-03-25T00:08:36;3.03;;;1.23;;
7501;SDS011;3792;47.740;7.606;2023-03-25T00:11:04;2.33;;;1.37;;
7501;SDS011;3792;47.740;7.606;2023-03-25T00:13:34;3.63;;;1.30;;
7501;SDS011;3792;47.740;7.606;2023-03-25T00:16:01;4.80;;;1.40;;
7501;SDS011;3792;47.740;7.606;2023-03-25T00:18:31;5.50;;;1.40;;
7501;SDS011;3792;47.740;7.606;2023-03-25T00:20:59;3.93;;;1.43;;
7501;SDS011;3792;47.740;7.606;2023-03-25T00:23:27;2.37;;;1.20;;
7501;SDS011;3792;47.740;7.606;2023-03-25T00:25:55;3.20;;;1.50;;
7501;SDS011;3792;47.740;7.606;2023-03-25T00:28:25;4.53;;;1.50;;
7501;SDS011;3792;47.740;7.606;2023-03-25T00:30:57;5.67;;;1.50;;
7501;SDS011;3792;47.740;7.606;2023-03-25T00:33:24;2.77;;;1.20;;
7501;SDS011;3792;47.740;7.606;2023-03-25T00:35:51;4.80;;;1.50;;
7501;SDS011;3792;47.740;7.606;2023-03-25T00:38:23;3.57;;;1.53;;
7501;SDS011;3792;47.740;7.606;2023-03-25T00:40:57;3.13;;;1.47;;
7501;SDS011;3792;47.740;7.606;2023-03-25T00:43:31;3.43;;;1.13;;
7501;SDS011;3792;47.740;7.606;2023-03-25T00:45:59;4.77;;;1.67;;
7501;SDS011;3792;47.740;7.606;2023-03-25T00:48:26;3.77;;;1.40;;
7501;SDS011;3792;47.740;7.606;2023-03-25T00:50:53;4.87;;;1.40;;
7501;SDS011;3792;47.740;7.606;2023-03-25T00:53:20;3.43;;;1.50;;
7501;SDS011;3792;47.740;7.606;2023-03-25T00:55:47;6.73;;;1.80;;
7501;SDS011;3792;47.740;7.606;2023-03-25T00:58:15;5.07;;;1.50;;
7501;SDS011;3792;47.740;7.606;2023-03-25T01:00:42;4.10;;;1.40;;
7501;SDS011;3792;47.740;7.606;2023-03-25T01:03:10;3.27;;;1.57;;
7501;SDS011;3792;47.740;7.606;2023-03-25T01:05:37;6.70;;;1.70;;
7501;SDS011;3792;47.740;7.606;2023-03-25T01:08:05;6.87;;;1.87;;
7501;SDS011;3792;47.740;7.606;2023-03-25T01:10:34;3.10;;;1.73;;
7501;SDS011;3792;47.740;7.606;2023-03-25T01:13:01;5.27;;;1.53;;
7501;SDS011;3792;47.740;7.606;2023-03-25T01:15:28;3.10;;;1.23;;
7501;SDS011;3792;47.740;7.606;2023-03-25T01:17:55;5.67;;;2.20;;
7501;SDS011;3792;47.740;7.606;2023-03-25T01:20:24;9.40;;;1.80;;
7501;SDS011;3792;47.740;7.606;2023-03-25T01:22:51;6.27;;;1.93;;
7501;SDS011;3792;47.740;7.606;2023-03-25T01:25:18;8.40;;;1.87;;
7501;SDS011;3792;47.740;7.606;2023-03-25T01:27:45;6.80;;;1.67;;
7501;SDS011;3792;47.740;7.606;2023-03-25T01:30:13;5.97;;;1.90;;
7501;SDS011;3792;47.740;7.606;2023-03-25T01:32:40;3.83;;;1.60;;
7501;SDS011;3792;47.740;7.606;2023-03-25T01:35:08;8.73;;;1.40;;
7501;SDS011;3792;47.740;7.606;2023-03-25T01:37:37;5.97;;;1.60;;
7501;SDS011;3792;47.740;7.606;2023-03-25T01:40:09;8.47;;;1.80;;
7501;SDS011;3792;47.740;7.606;2023-03-25T01:42:41;4.57;;;1.47;;
7501;SDS011;3792;47.740;7.606;2023-03-25T01:45:17;4.93;;;1.30;;
7501;SDS011;3792;47.740;7.606;2023-03-25T01:48:01;7.63;;;2.00;;
7501;SDS011;3792;47.740;7.606;2023-03-25T01:50:31;7.43;;;1.80;;
7501;SDS011;3792;47.740;7.606;2023-03-25T01:53:02;5.10;;;1.60;;
7501;SDS011;3792;47.740;7.606;2023-03-25T01:55:32;5.13;;;1.43;;
7501;SDS011;3792;47.740;7.606;2023-03-25T01:58:00;3.03;;;1.47;;
7501;SDS011;3792;47.740;7.606;2023-03-25T02:00:34;4.03;;;1.30;;
7501;SDS011;3792;47.740;7.606;2023-03-25T02:03:03;0.87;;;0.70;;
7501;SDS011;3792;47.740;7.606;2023-03-25T02:05:33;3.93;;;0.80;;
7501;SDS011;3792;47.740;7.606;2023-03-25T02:08:06;4.00;;;0.80;;
7501;SDS011;3792;47.740;7.606;2023-03-25T02:10:34;0.70;;;0.70;;
7501;SDS011;3792;47.740;7.606;2023-03-25T02:13:02;0.90;;;0.70;;
7501;SDS011;3792;47.740;7.606;2023-03-25T02:15:33;2.17;;;0.60;;
7501;SDS011;3792;47.740;7.606;2023-03-25T02:18:19;3.90;;;0.80;;
7501;SDS011;3792;47.740;7.606;2023-03-25T02:21:20;1.30;;;0.73;;
7501;SDS011;3792;47.740;7.606;2023-03-25T02:24:33;1.03;;;0.50;;
7501;SDS011;3792;47.740;7.606;2023-03-25T02:27:29;2.80;;;1.10;;
7501;SDS011;3792;47.740;7.606;2023-03-25T02:30:24;1.50;;;0.60;;
7501;SDS011;3792;47.740;7.606;2023-03-25T02:36:16;1.60;;;0.70;;
7501;SDS011;3792;47.740;7.606;2023-03-25T02:38:59;1.50;;;0.50;;
7501;SDS011;3792;47.740;7.606;2023-03-25T02:41:29;0.77;;;0.60;;
7501;SDS011;3792;47.740;7.606;2023-03-25T02:44:04;2.17;;;0.77;;
7501;SDS011;3792;47.740;7.606;2023-03-25T02:46:36;0.80;;;0.40;;
7501;SDS011;3792;47.740;7.606;2023-03-25T02:49:09;1.13;;;0.53;;
7501;SDS011;3792;47.740;7.606;2023-03-25T02:51:42;3.50;;;0.97;;
7501;SDS011;3792;47.740;7.606;2023-03-25T02:54:16;2.37;;;0.90;;
7501;SDS011;3792;47.740;7.606;2023-03-25T02:56:47;1.30;;;0.60;;
7501;SDS011;3792;47.740;7.606;2023-03-25T02:59:21;1.90;;;0.87;;
7501;SDS011;3792;47.740;7.606;2023-03-25T03:01:49;2.57;;;0.70;;
7501;SDS011;3792;47.740;7.606;2023-03-25T03:04:16;2.33;;;0.60;;
7501;SDS011;3792;47.740;7.606;2023-03-25T03:06:43;1.13;;;0.63;;
7501;SDS011;3792;47.740;7.606;2023-03-25T03:09:21;1.13;;;0.70;;
7501;SDS011;3792;47.740;7.606;2023-03-25T03:12:00;0.93;;;0.67;;
7501;SDS011;3792;47.740;7.606;2023-03-25T03:14:42;3.53;;;0.80;;
7501;SDS011;3792;47.740;7.606;2023-03-25T03:17:32;1.40;;;0.70;;
7501;SDS011;3792;47.740;7.606;2023-03-25T03:20:08;0.80;;;0.80;;
7501;SDS011;3792;47.740;7.606;2023-03-25T03:22:43;0.93;;;0.60;;
7501;SDS011;3792;47.740;7.606;2023-03-25T03:25:19;0.80;;;0.63;;
7501;SDS011;3792;47.740;7.606;2023-03-25T03:27:54;2.43;;;0.57;;
7501;SDS011;3792;47.740;7.606;2023-03-25T03:30:30;1.00;;;0.90;;
7501;SDS011;3792;47.740;7.606;2023-03-25T03:33:04;0.70;;;0.70;;
7501;SDS011;3792;47.740;7.606;2023-03-25T03:35:38;0.40;;;0.40;;
7501;SDS011;3792;47.740;7.606;2023-03-25T03:38:13;0.70;;;0.70;;
7501;SDS011;3792;47.740;7.606;2023-03-25T03:40:44;0.70;;;0.60;;
7501;SDS011;3792;47.740;7.606;2023-03-25T03:43:16;1.40;;;0.50;;
7501;SDS011;3792;47.740;7.606;2023-03-25T03:45:49;0.63;;;0.63;;
7501;SDS011;3792;47.740;7.606;2023-03-25T03:48:19;1.60;;;0.50;;
7501;SDS011;3792;47.740;7.606;2023-03-25T03:50:51;0.57;;;0.50;;
7501;SDS011;3792;47.740;7.606;2023-03-25T03:53:22;0.73;;;0.50;;
7501;SDS011;3792;47.740;7.606;2023-03-25T03:55:55;0.60;;;0.60;;
7501;SDS011;3792;47.740;7.606;2023-03-25T03:58:29;0.80;;;0.43;;
7501;SDS011;3792;47.740;7.606;2023-03-25T04:01:01;0.77;;;0.70;;
7501;SDS011;3792;47.740;7.606;2023-03-25T04:03:35;1.03;;;0.40;;
7501;SDS011;3792;47.740;7.606;2023-03-25T04:06:06;0.60;;;0.50;;
7501;SDS011;3792;47.740;7.606;2023-03-25T04:08:47;1.37;;;0.50;;
7501;SDS011;3792;47.740;7.606;2023-03-25T04:11:24;2.10;;;0.50;;
7501;SDS011;3792;47.740;7.606;2023-03-25T04:13:56;1.13;;;0.60;;
7501;SDS011;3792;47.740;7.606;2023-03-25T04:16:26;0.40;;;0.40;;
7501;SDS011;3792;47.740;7.606;2023-03-25T04:18:53;0.50;;;0.50;;
7501;SDS011;3792;47.740;7.606;2023-03-25T04:21:22;0.73;;;0.50;;
7501;SDS011;3792;47.740;7.606;2023-03-25T04:23:50;0.83;;;0.53;;
7501;SDS011;3792;47.740;7.606;2023-03-25T04:26:17;0.83;;;0.40;;
7501;SDS011;3792;47.740;7.606;2023-03-25T04:28:47;2.30;;;0.70;;
7501;SDS011;3792;47.740;7.606;2023-03-25T04:31:14;1.23;;;0.40;;
7501;SDS011;3792;47.740;7.606;2023-03-25T04:33:42;0.60;;;0.50;;
7501;SDS011;3792;47.740;7.606;2023-03-25T04:36:12;1.10;;;0.50;;
7501;SDS011;3792;47.740;7.606;2023-03-25T04:38:39;0.67;;;0.40;;
7501;SDS011;3792;47.740;7.606;2023-03-25T04:41:10;1.53;;;0.40;;
7501;SDS011;3792;47.740;7.606;2023-03-25T04:43:37;1.40;;;0.37;;
7501;SDS011;3792;47.740;7.606;2023-03-25T04:46:07;0.90;;;0.57;;
7501;SDS011;3792;47.740;7.606;2023-03-25T04:48:38;0.50;;;0.50;;
7501;SDS011;3792;47.740;7.606;2023-03-25T04:51:10;2.27;;;0.70;;
7501;SDS011;3792;47.740;7.606;2023-03-25T04:53:37;0.70;;;0.60;;
7501;SDS011;3792;47.740;7.606;2023-03-25T04:56:05;1.97;;;0.57;;
7501;SDS011;3792;47.740;7.606;2023-03-25T04:58:37;1.40;;;0.57;;
7501;SDS011;3792;47.740;7.606;2023-03-25T05:01:05;0.40;;;0.40;;
7501;SDS011;3792;47.740;7.606;2023-03-25T05:03:36;3.13;;;0.60;;
7501;SDS011;3792;47.740;7.606;2023-03-25T05:06:04;0.90;;;0.60;;
7501;SDS011;3792;47.740;7.606;2023-03-25T05:08:33;3.60;;;1.07;;
7501;SDS011;3792;47.740;7.606;2023-03-25T05:11:00;1.03;;;0.60;;
7501;SDS011;3792;47.740;7.606;2023-03-25T05:13:27;1.27;;;0.60;;
7501;SDS011;3792;47.740;7.606;2023-03-25T05:15:54;1.17;;;0.63;;
7501;SDS011;3792;47.740;7.606;2023-03-25T05:18:22;1.20;;;0.50;;
7501;SDS011;3792;47.740;7.606;2023-03-25T05:20:50;0.83;;;0.40;;
7501;SDS011;3792;47.740;7.606;2023-03-25T05:23:17;1.53;;;0.53;;
7501;SDS011;3792;47.740;7.606;2023-03-25T05:25:46;0.60;;;0.50;;
7501;SDS011;3792;47.740;7.606;2023-03-25T05:28:14;1.40;;;0.40;;
7501;SDS011;3792;47.740;7.606;2023-03-25T05:30:43;1.70;;;0.57;;
7501;SDS011;3792;47.740;7.606;2023-03-25T05:33:11;1.70;;;0.60;;
7501;SDS011;3792;47.740;7.606;2023-03-25T05:35:41;1.07;;;0.40;;
7501;SDS011;3792;47.740;7.606;2023-03-25T05:38:09;1.13;;;0.70;;
7501;SDS011;3792;47.740;7.606;2023-03-25T05:40:37;1.13;;;0.70;;
7501;SDS011;3792;47.740;7.606;2023-03-25T05:43:05;1.20;;;0.50;;
7501;SDS011;3792;47.740;7.606;2023-03-25T05:45:33;1.70;;;0.70;;
7501;SDS011;3792;47.740;7.606;2023-03-25T05:48:01;1.60;;;0.57;;
7501;SDS011;3792;47.740;7.606;2023-03-25T05:50:28;3.27;;;1.00;;
7501;SDS011;3792;47.740;7.606;2023-03-25T05:52:57;1.67;;;0.70;;
7501;SDS011;3792;47.740;7.606;2023-03-25T05:55:24;3.67;;;0.70;;
7501;SDS011;3792;47.740;7.606;2023-03-25T05:57:52;1.57;;;0.57;;
7501;SDS011;3792;47.740;7.606;2023-03-25T06:00:21;1.13;;;0.53;;
7501;SDS011;3792;47.740;7.606;2023-03-25T06:02:48;1.80;;;0.70;;
7501;SDS011;3792;47.740;7.606;2023-03-25T06:05:16;3.10;;;0.70;;
7501;SDS011;3792;47.740;7.606;2023-03-25T06:07:47;4.80;;;0.63;;
7501;SDS011;3792;47.740;7.606;2023-03-25T06:10:16;1.33;;;0.80;;
7501;SDS011;3792;47.740;7.606;2023-03-25T06:12:44;2.77;;;1.20;;
7501;SDS011;3792;47.740;7.606;2023-03-25T06:15:12;2.23;;;0.57;;
7501;SDS011;3792;47.740;7.606;2023-03-25T06:17:42;2.83;;;0.87;;
7501;SDS011;3792;47.740;7.606;2023-03-25T06:20:11;2.53;;;0.60;;
7501;SDS011;3792;47.740;7.606;2023-03-25T06:22:40;3.57;;;0.70;;
7501;SDS011;3792;47.740;7.606;2023-03-25T06:25:09;1.07;;;0.47;;
7501;SDS011;3792;47.740;7.606;2023-03-25T06:27:39;1.57;;;0.87;;
7501;SDS011;3792;47.740;7.606;2023-03-25T06:30:07;2.17;;;0.70;;
7501;SDS011;3792;47.740;7.606;2023-03-25T06:32:35;1.67;;;0.80;;
7501;SDS011;3792;47.740;7.606;2023-03-25T06:35:04;4.80;;;0.83;;
7501;SDS011;3792;47.740;7.606;2023-03-25T06:37:33;2.23;;;1.10;;
7501;SDS011;3792;47.740;7.606;2023-03-25T06:40:00;2.60;;;0.90;;
7501;SDS011;3792;47.740;7.606;2023-03-25T06:42:29;6.00;;;1.20;;
7501;SDS011;3792;47.740;7.606;2023-03-25T06:44:59;6.37;;;1.13;;
7501;SDS011;3792;47.740;7.606;2023-03-25T06:47:29;3.63;;;1.20;;
7501;SDS011;3792;47.740;7.606;2023-03-25T06:49:56;3.50;;;1.10;;
7501;SDS011;3792;47.740;7.606;2023-03-25T06:52:23;2.10;;;1.00;;
7501;SDS011;3792;47.740;7.606;2023-03-25T06:54:50;3.40;;;1.17;;
7501;SDS011;3792;47.740;7.606;2023-03-25T06:57:17;4.47;;;0.93;;
7501;SDS011;3792;47.740;7.606;2023-03-25T06:59:45;3.47;;;0.90;;
7501;SDS011;3792;47.740;7.606;2023-03-25T07:02:15;2.83;;;1.10;;
7501;SDS011;3792;47.740;7.606;2023-03-25T07:04:42;5.03;;;1.20;;
7501;SDS011;3792;47.740;7.606;2023-03-25T07:07:09;4.87;;;1.20;;
7501;SDS011;3792;47.740;7.606;2023-03-25T07:09:36;1.93;;;0.87;;
7501;SDS011;3792;47.740;7.606;2023-03-25T07:12:03;6.97;;;1.53;;
7501;SDS011;3792;47.740;7.606;2023-03-25T07:14:31;4.33;;;1.07;;
7501;SDS011;3792;47.740;7.606;2023-03-25T07:16:58;3.10;;;1.00;;
7501;SDS011;3792;47.740;7.606;2023-03-25T07:19:26;4.43;;;1.10;;
7501;SDS011;3792;47.740;7.606;2023-03-25T07:21:54;4.10;;;1.43;;
7501;SDS011;3792;47.740;7.606;2023-03-25T07:24:21;5.27;;;1.20;;
7501;SDS011;3792;47.740;7.606;2023-03-25T07:26:48;4.80;;;1.43;;
7501;SDS011;3792;47.740;7.606;2023-03-25T07:29:15;3.10;;;1.20;;
7501;SDS011;3792;47.740;7.606;2023-03-25T07:31:43;5.60;;;1.30;;
7501;SDS011;3792;47.740;7.606;2023-03-25T07:34:10;6.13;;;1.87;;
7501;SDS011;3792;47.740;7.606;2023-03-25T07:36:39;6.47;;;1.93;;
7501;SDS011;3792;47.740;7.606;2023-03-25T07:39:06;3.27;;;1.00;;
7501;SDS011;3792;47.740;7.606;2023-03-25T07:41:33;5.17;;;1.20;;
7501;SDS011;3792;47.740;7.606;2023-03-25T07:44:00;3.27;;;1.20;;
7501;SDS011;3792;47.740;7.606;2023-03-25T07:46:27;2.17;;;1.33;;
7501;SDS011;3792;47.740;7.606;2023-03-25T07:48:54;8.93;;;1.00;;
7501;SDS011;3792;47.740;7.606;2023-03-25T07:51:21;4.20;;;0.97;;
7501;SDS011;3792;47.740;7.606;2023-03-25T07:53:49;2.03;;;0.93;;
7501;SDS011;3792;47.740;7.606;2023-03-25T07:56:16;1.87;;;0.80;;
7501;SDS011;3792;47.740;7.606;2023-03-25T07:58:43;1.67;;;0.80;;
7501;SDS011;3792;47.740;7.606;2023-03-25T08:01:11;1.97;;;0.90;;
7501;SDS011;3792;47.740;7.606;2023-03-25T08:03:38;2.73;;;0.60;;
7501;SDS011;3792;47.740;7.606;2023-03-25T08:06:05;1.80;;;0.80;;
7501;SDS011;3792;47.740;7.606;2023-03-25T08:08:33;2.77;;;0.60;;
7501;SDS011;3792;47.740;7.606;2023-03-25T08:11:02;1.43;;;0.60;;
7501;SDS011;3792;47.740;7.606;2023-03-25T08:13:29;2.40;;;0.70;;
7501;SDS011;3792;47.740;7.606;2023-03-25T08:15:56;1.77;;;0.87;;
7501;SDS011;3792;47.740;7.606;2023-03-25T08:18:26;1.60;;;0.90;;
7501;SDS011;3792;47.740;7.606;2023-03-25T08:20:53;1.80;;;0.70;;
7501;SDS011;3792;47.740;7.606;2023-03-25T08:23:21;0.83;;;0.50;;
7501;SDS011;3792;47.740;7.606;2023-03-25T08:25:50;1.47;;;0.60;;
7501;SDS011;3792;47.740;7.606;2023-03-25T08:28:19;0.87;;;0.87;;
7501;SDS011;3792;47.740;7.606;2023-03-25T08:30:47;0.43;;;0.40;;
7501;SDS011;3792;47.740;7.606;2023-03-25T08:33:18;0.60;;;0.50;;
7501;SDS011;3792;47.740;7.606;2023-03-25T08:35:46;1.47;;;1.00;;
7501;SDS011;3792;47.740;7.606;2023-03-25T08:38:15;2.00;;;1.00;;
7501;SDS011;3792;47.740;7.606;2023-03-25T08:40:42;0.80;;;0.80;;
7501;SDS011;3792;47.740;7.606;2023-03-25T08:43:09;2.50;;;0.90;;
7501;SDS011;3792;47.740;7.606;2023-03-25T08:45:38;2.50;;;1.00;;
7501;SDS011;3792;47.740;7.606;2023-03-25T08:48:05;3.57;;;1.60;;
7501;SDS011;3792;47.740;7.606;2023-03-25T08:50:32;4.17;;;2.57;;
7501;SDS011;3792;47.740;7.606;2023-03-25T08:52:59;6.10;;;2.67;;
7501;SDS011;3792;47.740;7.606;2023-03-25T08:55:26;7.40;;;5.67;;
7501;SDS011;3792;47.740;7.606;2023-03-25T08:57:54;4.87;;;3.93;;
7501;SDS011;3792;47.740;7.606;2023-03-25T09:00:21;5.60;;;4.17;;
7501;SDS011;3792;47.740;7.606;2023-03-25T09:02:50;2.40;;;2.10;;
7501;SDS011;3792;47.740;7.606;2023-03-25T09:05:17;6.57;;;6.17;;
7501;SDS011;3792;47.740;7.606;2023-03-25T09:07:45;8.33;;;5.77;;
7501;SDS011;3792;47.740;7.606;2023-03-25T09:10:12;3.67;;;2.23;;
7501;SDS011;3792;47.740;7.606;2023-03-25T09:12:39;4.47;;;1.80;;
7501;SDS011;3792;47.740;7.606;2023-03-25T09:15:07;2.20;;;1.40;;
7501;SDS011;3792;47.740;7.606;2023-03-25T09:17:36;2.53;;;1.40;;
7501;SDS011;3792;47.740;7.606;2023-03-25T09:20:05;2.17;;;1.60;;
7501;SDS011;3792;47.740;7.606;2023-03-25T09:22:33;1.83;;;1.17;;
7501;SDS011;3792;47.740;7.606;2023-03-25T09:25:00;0.90;;;0.90;;
7501;SDS011;3792;47.740;7.606;2023-03-25T09:27:28;1.63;;;0.90;;
7501;SDS011;3792;47.740;7.606;2023-03-25T09:29:55;1.67;;;0.90;;
7501;SDS011;3792;47.740;7.606;2023-03-25T09:32:23;1.43;;;0.80;;
7501;SDS011;3792;47.740;7.606;2023-03-25T09:34:50;2.63;;;1.03;;
7501;SDS011;3792;47.740;7.606;2023-03-25T09:37:19;0.60;;;0.53;;
7501;SDS011;3792;47.740;7.606;2023-03-25T09:39:46;0.83;;;0.60;;
7501;SDS011;3792;47.740;7.606;2023-03-25T09:42:23;1.23;;;0.90;;
7501;SDS011;3792;47.740;7.606;2023-03-25T09:45:02;0.77;;;0.50;;
7501;SDS011;3792;47.740;7.606;2023-03-25T09:47:40;1.30;;;0.73;;
7501;SDS011;3792;47.740;7.606;2023-03-25T09:50:18;0.80;;;0.80;;
7501;SDS011;3792;47.740;7.606;2023-03-25T09:52:48;0.50;;;0.50;;
7501;SDS011;3792;47.740;7.606;2023-03-25T09:55:20;0.73;;;0.53;;
7501;SDS011;3792;47.740;7.606;2023-03-25T09:57:50;0.67;;;0.67;;
7501;SDS011;3792;47.740;7.606;2023-03-25T10:00:25;0.83;;;0.50;;
7501;SDS011;3792;47.740;7.606;2023-03-25T10:02:56;2.57;;;0.80;;
7501;SDS011;3792;47.740;7.606;2023-03-25T10:05:35;2.53;;;0.60;;
7501;SDS011;3792;47.740;7.606;2023-03-25T10:08:16;0.40;;;0.40;;
7501;SDS011;3792;47.740;7.606;2023-03-25T10:10:51;0.47;;;0.47;;
7501;SDS011;3792;47.740;7.606;2023-03-25T10:13:29;2.10;;;0.50;;
7501;SDS011;3792;47.740;7.606;2023-03-25T10:16:03;0.33;;;0.33;;
7501;SDS011;3792;47.740;7.606;2023-03-25T10:18:45;1.80;;;0.50;;
7501;SDS011;3792;47.740;7.606;2023-03-25T10:21:18;0.53;;;0.40;;
7501;SDS011;3792;47.740;7.606;2023-03-25T10:23:54;0.50;;;0.50;;
7501;SDS011;3792;47.740;7.606;2023-03-25T10:26:29;1.80;;;0.40;;
7501;SDS011;3792;47.740;7.606;2023-03-25T10:29:04;1.30;;;0.50;;
7501;SDS011;3792;47.740;7.606;2023-03-25T10:31:36;0.60;;;0.60;;
7501;SDS011;3792;47.740;7.606;2023-03-25T10:34:09;1.13;;;0.77;;
7501;SDS011;3792;47.740;7.606;2023-03-25T10:36:44;0.87;;;0.73;;
7501;SDS011;3792;47.740;7.606;2023-03-25T10:39:18;1.43;;;0.90;;
7501;SDS011;3792;47.740;7.606;2023-03-25T10:41:48;1.07;;;0.50;;
7501;SDS011;3792;47.740;7.606;2023-03-25T10:44:20;4.07;;;1.00;;
7501;SDS011;3792;47.740;7.606;2023-03-25T10:46:51;1.53;;;0.93;;
7501;SDS011;3792;47.740;7.606;2023-03-25T10:49:25;2.47;;;1.10;;
7501;SDS011;3792;47.740;7.606;2023-03-25T10:51:54;1.80;;;1.03;;
7501;SDS011;3792;47.740;7.606;2023-03-25T10:54:26;1.80;;;0.90;;
7501;SDS011;3792;47.740;7.606;2023-03-25T10:56:57;1.40;;;0.70;;
7501;SDS011;3792;47.740;7.606;2023-03-25T10:59:28;3.90;;;1.60;;
7501;SDS011;3792;47.740;7.606;2023-03-25T11:02:00;4.10;;;1.60;;
7501;SDS011;3792;47.740;7.606;2023-03-25T11:04:37;2.43;;;1.30;;
7501;SDS011;3792;47.740;7.606;2023-03-25T11:07:12;1.37;;;1.27;;
7501;SDS011;3792;47.740;7.606;2023-03-25T11:09:45;3.03;;;1.00;;
7501;SDS011;3792;47.740;7.606;2023-03-25T11:12:16;2.73;;;1.20;;
7501;SDS011;3792;47.740;7.606;2023-03-25T11:14:45;3.77;;;1.27;;
7501;SDS011;3792;47.740;7.606;2023-03-25T11:17:21;3.10;;;1.10;;
7501;SDS011;3792;47.740;7.606;2023-03-25T11:19:51;3.17;;;1.40;;
7501;SDS011;3792;47.740;7.606;2023-03-25T11:22:23;2.67;;;1.00;;
7501;SDS011;3792;47.740;7.606;2023-03-25T11:24:57;3.50;;;0.90;;
7501;SDS011;3792;47.740;7.606;2023-03-25T11:27:27;2.17;;;1.10;;
7501;SDS011;3792;47.740;7.606;2023-03-25T11:29:58;3.37;;;1.10;;
7501;SDS011;3792;47.740;7.606;2023-03-25T11:32:32;3.23;;;1.07;;
7501;SDS011;3792;47.740;7.606;2023-03-25T11:35:01;2.83;;;1.27;;
7501;SDS011;3792;47.740;7.606;2023-03-25T11:37:35;2.80;;;1.17;;
7501;SDS011;3792;47.740;7.606;2023-03-25T11:40:12;1.33;;;1.23;;
7501;SDS011;3792;47.740;7.606;2023-03-25T11:42:41;2.97;;;1.50;;
7501;SDS011;3792;47.740;7.606;2023-03-25T11:45:18;3.30;;;1.70;;
7501;SDS011;3792;47.740;7.606;2023-03-25T11:47:47;3.90;;;1.90;;
7501;SDS011;3792;47.740;7.606;2023-03-25T11:50:19;2.10;;;1.57;;
7501;SDS011;3792;47.740;7.606;2023-03-25T11:52:48;3.17;;;1.33;;
7501;SDS011;3792;47.740;7.606;2023-03-25T11:55:22;5.00;;;1.33;;
7501;SDS011;3792;47.740;7.606;2023-03-25T11:57:51;2.40;;;1.33;;
7501;SDS011;3792;47.740;7.606;2023-03-25T12:00:30;2.40;;;1.03;;
7501;SDS011;3792;47.740;7.606;2023-03-25T12:03:02;4.70;;;1.03;;
7501;SDS011;3792;47.740;7.606;2023-03-25T12:05:30;2.97;;;1.20;;
7501;SDS011;3792;47.740;7.606;2023-03-25T12:07:59;2.53;;;1.27;;
7501;SDS011;3792;47.740;7.606;2023-03-25T12:10:35;2.77;;;0.73;;
7501;SDS011;3792;47.740;7.606;2023-03-25T12:13:14;2.83;;;1.17;;
7501;SDS011;3792;47.740;7.606;2023-03-25T12:15:50;3.20;;;0.97;;
7501;SDS011;3792;47.740;7.606;2023-03-25T12:18:36;4.07;;;1.77;;
7501;SDS011;3792;47.740;7.606;2023-03-25T12:21:21;2.53;;;0.90;;
7501;SDS011;3792;47.740;7.606;2023-03-25T12:24:00;2.63;;;1.47;;
7501;SDS011;3792;47.740;7.606;2023-03-25T12:26:40;2.00;;;0.90;;
7501;SDS011;3792;47.740;7.606;2023-03-25T12:29:18;2.67;;;0.90;;
7501;SDS011;3792;47.740;7.606;2023-03-25T12:31:58;5.33;;;2.77;;
7501;SDS011;3792;47.740;7.606;2023-03-25T12:34:38;2.67;;;1.83;;
7501;SDS011;3792;47.740;7.606;2023-03-25T12:37:18;2.27;;;1.30;;
7501;SDS011;3792;47.740;7.606;2023-03-25T12:39:57;3.43;;;1.30;;
7501;SDS011;3792;47.740;7.606;2023-03-25T12:42:38;3.57;;;1.83;;
7501;SDS011;3792;47.740;7.606;2023-03-25T12:48:10;4.53;;;1.03;;
7501;SDS011;3792;47.740;7.606;2023-03-25T12:50:49;2.57;;;0.77;;
7501;SDS011;3792;47.740;7.606;2023-03-25T12:53:26;1.87;;;1.03;;
7501;SDS011;3792;47.740;7.606;2023-03-25T12:56:06;1.43;;;0.70;;
7501;SDS011;3792;47.740;7.606;2023-03-25T12:58:50;2.10;;;0.80;;
7501;SDS011;3792;47.740;7.606;2023-03-25T13:01:27;5.07;;;0.90;;
7501;SDS011;3792;47.740;7.606;2023-03-25T13:04:07;1.23;;;0.80;;
7501;SDS011;3792;47.740;7.606;2023-03-25T13:06:52;1.40;;;0.80;;
7501;SDS011;3792;47.740;7.606;2023-03-25T13:09:24;2.20;;;1.00;;
7501;SDS011;3792;47.740;7.606;2023-03-25T13:11:56;3.83;;;1.10;;
7501;SDS011;3792;47.740;7.606;2023-03-25T13:14:30;2.10;;;1.03;;
7501;SDS011;3792;47.740;7.606;2023-03-25T13:17:01;2.53;;;1.10;;
7501;SDS011;3792;47.740;7.606;2023-03-25T13:19:33;2.43;;;1.00;;
7501;SDS011;3792;47.740;7.606;2023-03-25T13:22:10;2.00;;;1.00;;
7501;SDS011;3792;47.740;7.606;2023-03-25T13:24:44;4.10;;;1.03;;
7501;SDS011;3792;47.740;7.606;2023-03-25T13:27:16;3.27;;;0.90;;
7501;SDS011;3792;47.740;7.606;2023-03-25T13:29:45;3.60;;;0.93;;
7501;SDS011;3792;47.740;7.606;2023-03-25T13:32:17;3.83;;;1.20;;
7501;SDS011;3792;47.740;7.606;2023-03-25T13:34:50;1.47;;;1.00;;
7501;SDS011;3792;47.740;7.606;2023-03-25T13:37:22;3.20;;;1.50;;
7501;SDS011;3792;47.740;7.606;2023-03-25T13:39:55;2.73;;;1.10;;
7501;SDS011;3792;47.740;7.606;2023-03-25T13:42:40;2.23;;;1.00;;
7501;SDS011;3792;47.740;7.606;2023-03-25T13:45:15;3.33;;;0.87;;
7501;SDS011;3792;47.740;7.606;2023-03-25T13:47:44;2.83;;;1.17;;
7501;SDS011;3792;47.740;7.606;2023-03-25T13:50:19;0.97;;;0.60;;
7501;SDS011;3792;47.740;7.606;2023-03-25T13:52:53;2.17;;;0.70;;
7501;SDS011;3792;47.740;7.606;2023-03-25T13:55:28;0.70;;;0.70;;
7501;SDS011;3792;47.740;7.606;2023-03-25T14:04:13;1.00;;;0.90;;
7501;SDS011;3792;47.740;7.606;2023-03-25T14:06:55;1.73;;;0.87;;
7501;SDS011;3792;47.740;7.606;2023-03-25T14:12:28;3.20;;;1.10;;
7501;SDS011;3792;47.740;7.606;2023-03-25T14:14:59;1.53;;;1.10;;
7501;SDS011;3792;47.740;7.606;2023-03-25T14:17:32;3.43;;;1.13;;
7501;SDS011;3792;47.740;7.606;2023-03-25T14:20:02;2.00;;;1.00;;
7501;SDS011;3792;47.740;7.606;2023-03-25T14:22:34;2.43;;;1.17;;
7501;SDS011;3792;47.740;7.606;2023-03-25T14:25:11;0.87;;;0.80;;
7501;SDS011;3792;47.740;7.606;2023-03-25T14:27:47;3.30;;;1.37;;
7501;SDS011;3792;47.740;7.606;2023-03-25T14:30:18;3.47;;;1.13;;
7501;SDS011;3792;47.740;7.606;2023-03-25T14:32:50;2.53;;;1.20;;
7501;SDS011;3792;47.740;7.606;2023-03-25T14:44:25;1.10;;;1.10;;
7501;SDS011;3792;47.740;7.606;2023-03-25T14:47:00;3.30;;;0.90;;
7501;SDS011;3792;47.740;7.606;2023-03-25T14:49:51;3.30;;;1.20;;
7501;SDS011;3792;47.740;7.606;2023-03-25T14:52:23;3.63;;;1.20;;
7501;SDS011;3792;47.740;7.606;2023-03-25T14:54:55;2.23;;;1.20;;
7501;SDS011;3792;47.740;7.606;2023-03-25T14:57:24;1.30;;;0.87;;
7501;SDS011;3792;47.740;7.606;2023-03-25T14:59:57;4.60;;;1.13;;
7501;SDS011;3792;47.740;7.606;2023-03-25T15:02:34;1.70;;;0.80;;
7501;SDS011;3792;47.740;7.606;2023-03-25T15:05:11;2.20;;;0.90;;
7501;SDS011;3792;47.740;7.606;2023-03-25T15:07:43;2.77;;;1.27;;
7501;SDS011;3792;47.740;7.606;2023-03-25T15:10:23;4.10;;;1.10;;
7501;SDS011;3792;47.740;7.606;2023-03-25T15:12:54;2.20;;;0.70;;
7501;SDS011;3792;47.740;7.606;2023-03-25T15:15:28;1.30;;;1.10;;
7501;SDS011;3792;47.740;7.606;2023-03-25T15:17:58;2.37;;;0.83;;
7501;SDS011;3792;47.740;7.606;2023-03-25T15:23:23;2.53;;;0.93;;
7501;SDS011;3792;47.740;7.606;2023-03-25T15:26:02;1.83;;;1.00;;
7501;SDS011;3792;47.740;7.606;2023-03-25T15:31:38;2.60;;;1.23;;
7501;SDS011;3792;47.740;7.606;2023-03-25T15:34:18;4.73;;;1.20;;
7501;SDS011;3792;47.740;7.606;2023-03-25T15:37:14;2.97;;;1.13;;
7501;SDS011;3792;47.740;7.606;2023-03-25T15:40:01;1.67;;;1.00;;
7501;SDS011;3792;47.740;7.606;2023-03-25T15:42:38;3.10;;;1.60;;
7501;SDS011;3792;47.740;7.606;2023-03-25T15:45:21;1.70;;;1.60;;
7501;SDS011;3792;47.740;7.606;2023-03-25T15:48:04;1.13;;;1.00;;
7501;SDS011;3792;47.740;7.606;2023-03-25T15:50:46;3.77;;;2.13;;
7501;SDS011;3792;47.740;7.606;2023-03-25T15:53:29;1.60;;;0.90;;
7501;SDS011;3792;47.740;7.606;2023-03-25T15:56:20;2.10;;;0.87;;
7501;SDS011;3792;47.740;7.606;2023-03-25T15:58:50;2.93;;;1.63;;
7501;SDS011;3792;47.740;7.606;2023-03-25T16:01:23;1.83;;;1.13;;
7501;SDS011;3792;47.740;7.606;2023-03-25T16:03:55;4.03;;;2.43;;
7501;SDS011;3792;47.740;7.606;2023-03-25T16:06:26;3.73;;;1.47;;
7501;SDS011;3792;47.740;7.606;2023-03-25T16:08:56;1.13;;;0.87;;
7501;SDS011;3792;47.740;7.606;2023-03-25T16:11:24;2.07;;;1.00;;
7501;SDS011;3792;47.740;7.606;2023-03-25T16:14:00;2.33;;;1.10;;